logo
Search for airport 
image banner adimage banner adimage banner ad
image banner ad

OETB - Tabuk / Prince Sultan Bin Abdulaziz

Located in Tabuk, Saudi Arabia

ICAO - OETB, IATA - TUU

Data provided by Airmate  

General information

Coordinates: N28°22'23" E36°37'17"
Elevation is 2551 feet MSL.
 
View others Airports in Tabuk

Operational data

Special qualification required
Current time UTC:
Current local time:
Weather
METAR: OETB 141700Z 34018KT CAVOK 35/02 Q1007 NOSIG
TAF: TAF OETB 141100Z 1412/1518 33014KT CAVOK BECMG 1420/1422 VRB03KT BECMG 1506/1508 27009KT
View NOTAMs / SUP AIP / TFR affecting this airport [VIEW]
Communications frequencies: [VIEW]

Runways:

RWY identifierQFULength (ft)Width (ft)SurfaceLDA (ft)
0665°10991148ASP
24245°10991148ASP
13132°10007148ASP
31312°10007148ASP

Airport contact information

Address: Tabuk Saudi Arabia

Satellite view of OETB